Terminal Aerodrome Forecast
Issued by NWS Louisville, KY

Home | Current Version | Previous Version | Text Only | Print | Product List | Glossary Off
Versions: 1 2 3 4 5 6 7 8 9 10 11 12 13 14 15 16 17 18

000
FTUS43 KLMK 281729
TAFBWG
TAF
KBWG 281729Z 2818/2918 31004KT P6SM SCT020 BKN030
     FM290600 VRB03KT P6SM BKN025
      TEMPO 2909/2913 5SM BR
     FM291600 08005KT P6SM BKN035=

USA.gov is the U.S. government's official web portal to all federal, state and local government web resources and services.